CheckWX is a tool to help pilots better visualize weather data.  It is not intended as a substitute for an official pre-flight weather briefing.

08:04:10 UTC

KEWR TAF
Newark Liberty International Airport
Newark, New Jersey, USA
KEWR 210539Z 2106/2212 03010KT P6SM BKN020 BKN040 FM210800 02010KT P6SM BKN025 BKN050 FM211100 01010KT P6SM SCT025 FM212000 05008KT P6SM FEW030 FM220000 05006KT P6SM SCT250 FM221100 06007KT P6SM BKN015

Oct-21@
06:00 UTC

Oct-21 @ 06:00 UTC

Oct-21@
08:00 UTC

Oct-21 @ 08:00 UTC

KEWR 210539Z 2106/2212 03010KT P6SM BKN020 BKN040

Expired

Wind
  • 030° at 10 KTS
Cloud Levels
  • Broken at 2,000' AGL
  • Broken at 4,000' AGL

Oct-21@
08:00 UTC

Oct-21 @ 08:00 UTC

Oct-21@
11:00 UTC

Oct-21 @ 11:00 UTC

FM210800 02010KT P6SM BKN025 BKN050

From

From Standard forecast or significant change

Wind
  • 020° at 10 KTS
Cloud Levels
  • Broken at 2,500' AGL
  • Broken at 5,000' AGL

Oct-21@
11:00 UTC

Oct-21 @ 11:00 UTC

Oct-21@
20:00 UTC

Oct-21 @ 20:00 UTC

FM211100 01010KT P6SM SCT025

From

From Standard forecast or significant change

Wind
  • 010° at 10 KTS
Cloud Levels
  • Scattered at 2,500' AGL

Oct-21@
20:00 UTC

Oct-21 @ 20:00 UTC

Oct-22@
00:00 UTC

Oct-22 @ 00:00 UTC

FM212000 05008KT P6SM FEW030

From

From Standard forecast or significant change

Wind
  • 050° at 8 KTS
Cloud Levels
  • Few at 3,000' AGL

Oct-22@
00:00 UTC

Oct-22 @ 00:00 UTC

Oct-22@
11:00 UTC

Oct-22 @ 11:00 UTC

FM220000 05006KT P6SM SCT250

From

From Standard forecast or significant change

Wind
  • 050° at 6 KTS
Cloud Levels
  • Scattered at 25,000' AGL

Oct-22@
11:00 UTC

Oct-22 @ 11:00 UTC

Oct-22@
12:00 UTC

Oct-22 @ 12:00 UTC

FM221100 06007KT P6SM BKN015

From

From Standard forecast or significant change

Wind
  • 060° at 7 KTS
Cloud Levels
  • Broken at 1,500' AGL